Rogers City, Michigan
Current Conditions -  °F | °C
As of 5:05 AM on Wednesday 22 Oct 2014 (Local Time) from KPZQ Reporting Station
Overcast Overcast  
Wind Chill: 39°   Ceiling: 2200
Heat Index: 39°   Visibility: 10mi
Dew Point: 34°   Wind: 3mph
Humidity: 81%   Direction: 40°NE
Pressure: 30.36"   Gusts: NA
Location:  45.42°N, 83.82°W
Report Text: KPZQ 220905Z AUTO 04003KT 10SM OVC022 04/01 A3036 RMK AO2
Loading
Personal Weather Stations






























Interactive Weather Map
Tropical Storm Tracking
New forecast layout! Learn more

10-Day Weather Forecast

Advertisements
Track Severe Weather on mobile